Time;durP1;ratioP1;P1;durP2;ratioP2;P2;SDS_P1;SDS_P2;PMS_P1;PMS_P2;Temp;Humidity;BMP_temperature;BMP_pressure;BME280_temperature;BME280_humidity;BME280_pressure;Samples;Min_cycle;Max_cycle;Signal;HPM_P1;HPM_P2
2023/08/03 00:00:45;;;;;;;14.77;1.80;;;18.20;99.90;;;;;;4986480;28;20460;-91
2023/08/03 00:03:11;;;;;;;10.53;2.20;;;18.00;99.90;;;;;;4994664;28;20455;-89
2023/08/03 00:05:38;;;;;;;7.10;2.10;;;18.20;99.90;;;;;;4991747;28;20521;-91
2023/08/03 00:08:06;;;;;;;10.90;2.40;;;18.20;99.90;;;;;;4982457;28;20483;-90
2023/08/03 00:10:35;;;;;;;5.43;2.40;;;18.20;99.90;;;;;;4982805;28;20956;-92
2023/08/03 00:13:01;;;;;;;3.23;1.80;;;18.20;99.90;;;;;;4994380;28;20463;-91
2023/08/03 00:15:28;;;;;;;7.67;2.40;;;18.10;99.90;;;;;;4994249;28;20763;-91
2023/08/03 00:17:55;;;;;;;7.03;2.00;;;18.10;99.90;;;;;;4993785;28;20494;-90
2023/08/03 00:20:21;;;;;;;5.67;1.93;;;18.10;99.90;;;;;;4979204;28;20834;-91
2023/08/03 00:22:48;;;;;;;4.50;2.13;;;18.10;99.90;;;;;;4992855;28;20996;-91
2023/08/03 00:25:16;;;;;;;11.30;2.27;;;18.20;99.90;;;;;;4980023;28;20899;-91
2023/08/03 00:27:43;;;;;;;12.80;2.17;;;18.10;99.90;;;;;;4984334;28;20460;-91
2023/08/03 00:30:11;;;;;;;7.33;1.80;;;18.10;99.90;;;;;;4985134;28;20502;-91
2023/08/03 00:32:37;;;;;;;9.50;2.50;;;18.00;99.90;;;;;;4991704;28;20510;-90
2023/08/03 00:35:05;;;;;;;7.23;2.67;;;18.00;99.90;;;;;;4993757;28;20509;-91
2023/08/03 00:37:32;;;;;;;10.93;2.40;;;18.00;99.90;;;;;;4985947;28;20470;-90
2023/08/03 00:39:59;;;;;;;6.07;2.17;;;18.00;99.90;;;;;;4969753;28;20451;-91
2023/08/03 00:42:27;;;;;;;14.50;2.50;;;18.10;99.90;;;;;;4993025;28;20510;-91
2023/08/03 00:44:54;;;;;;;6.70;2.30;;;18.00;99.90;;;;;;4993030;28;20490;-91
2023/08/03 00:47:20;;;;;;;9.43;2.60;;;18.00;99.90;;;;;;4993706;28;20466;-91
2023/08/03 00:49:47;;;;;;;7.20;2.03;;;18.00;99.90;;;;;;4983419;28;20463;-91
2023/08/03 00:52:14;;;;;;;7.30;2.30;;;17.90;99.90;;;;;;4994073;28;20490;-91
2023/08/03 00:54:41;;;;;;;9.17;2.17;;;17.80;99.90;;;;;;4993553;28;20506;-90
2023/08/03 00:57:08;;;;;;;21.93;2.30;;;17.60;99.90;;;;;;4981365;28;20541;-91
2023/08/03 00:59:36;;;;;;;9.67;2.30;;;17.70;99.90;;;;;;4990791;28;20894;-90
2023/08/03 01:02:03;;;;;;;8.10;2.20;;;17.40;99.90;;;;;;4993957;28;21016;-90
2023/08/03 01:04:30;;;;;;;5.10;1.83;;;17.30;99.90;;;;;;4994658;28;20545;-91
2023/08/03 01:06:56;;;;;;;8.10;2.37;;;17.30;99.90;;;;;;4984932;28;20429;-91
2023/08/03 01:09:23;;;;;;;6.50;2.07;;;17.40;99.90;;;;;;4994548;28;20548;-91
2023/08/03 01:11:50;;;;;;;10.23;1.63;;;17.40;99.90;;;;;;4993957;28;20501;-91
2023/08/03 01:14:17;;;;;;;4.60;1.70;;;17.50;99.90;;;;;;4988364;28;20455;-91
2023/08/03 01:16:45;;;;;;;3.53;2.17;;;17.50;99.90;;;;;;4984581;28;20451;-91
2023/08/03 01:19:14;;;;;;;5.33;2.20;;;17.40;99.90;;;;;;4988961;28;20838;-90
2023/08/03 01:21:43;;;;;;;4.20;1.60;;;17.60;99.90;;;;;;4982069;28;20455;-92
2023/08/03 01:24:11;;;;;;;9.20;2.37;;;17.60;99.90;;;;;;4992833;28;20509;-90
2023/08/03 01:26:38;;;;;;;3.90;1.73;;;17.60;99.90;;;;;;4984522;28;20519;-92
2023/08/03 01:29:05;;;;;;;6.37;2.17;;;17.60;99.90;;;;;;4985434;28;20450;-91
2023/08/03 01:31:33;;;;;;;7.27;1.47;;;17.50;99.90;;;;;;4988345;28;20940;-91
2023/08/03 01:33:59;;;;;;;4.17;2.20;;;17.60;99.90;;;;;;4985318;28;20496;-91
2023/08/03 01:36:26;;;;;;;4.17;1.73;;;17.60;99.90;;;;;;4993366;28;20455;-90
2023/08/03 01:39:05;;;;;;;5.80;2.20;;;17.60;99.90;;;;;;4976717;28;20687;-90
2023/08/03 01:41:34;;;;;;;9.10;2.10;;;17.70;99.90;;;;;;4992870;28;20521;-91
2023/08/03 01:44:20;;;;;;;9.20;1.80;;;17.60;99.90;;;;;;4990247;28;20465;-90
2023/08/03 01:46:47;;;;;;;2.00;1.50;;;17.60;99.90;;;;;;4991084;28;20451;-89
2023/08/03 01:49:13;;;;;;;8.57;2.00;;;17.70;99.90;;;;;;4988289;28;20469;-91
2023/08/03 01:51:40;;;;;;;4.57;2.03;;;17.70;99.90;;;;;;4982239;28;20486;-91
2023/08/03 01:54:07;;;;;;;5.20;2.03;;;17.80;99.90;;;;;;5015643;28;20478;-94
2023/08/03 01:56:35;;;;;;;8.50;1.87;;;17.80;99.90;;;;;;5001876;28;20471;-92
2023/08/03 01:59:02;;;;;;;6.13;1.80;;;17.80;99.90;;;;;;4997136;28;20891;-90
2023/08/03 02:01:28;;;;;;;15.60;2.10;;;17.80;99.90;;;;;;4992040;28;20451;-91
2023/08/03 02:03:55;;;;;;;9.93;1.80;;;17.80;99.90;;;;;;4992333;28;20498;-90
2023/08/03 02:06:22;;;;;;;7.20;1.90;;;17.80;99.90;;;;;;4984644;28;20523;-91
2023/08/03 02:08:49;;;;;;;4.93;1.73;;;17.70;99.90;;;;;;4990062;28;20463;-90
2023/08/03 02:11:16;;;;;;;5.30;1.70;;;17.80;99.90;;;;;;4992306;28;20462;-91
2023/08/03 02:13:44;;;;;;;6.27;1.83;;;17.90;99.90;;;;;;4992241;28;20949;-90
2023/08/03 02:16:11;;;;;;;4.27;1.83;;;17.80;99.90;;;;;;4988229;28;20426;-90
2023/08/03 02:18:38;;;;;;;3.27;1.33;;;17.80;99.90;;;;;;4982342;28;20449;-91
2023/08/03 02:21:05;;;;;;;17.13;2.10;;;17.80;99.90;;;;;;4992752;28;20547;-91
2023/08/03 02:23:32;;;;;;;5.03;1.43;;;17.90;99.90;;;;;;4991538;28;20972;-91
2023/08/03 02:25:59;;;;;;;4.53;1.40;;;17.90;99.90;;;;;;4987641;28;20486;-91
2023/08/03 02:28:25;;;;;;;13.57;1.70;;;17.90;99.90;;;;;;4987503;28;20996;-90
2023/08/03 02:30:53;;;;;;;6.90;1.80;;;17.80;99.90;;;;;;4990257;28;20448;-92
2023/08/03 02:33:20;;;;;;;5.13;1.53;;;17.80;99.90;;;;;;4982713;28;20506;-91
2023/08/03 02:35:47;;;;;;;4.50;1.73;;;17.80;99.90;;;;;;4992732;28;20953;-91
2023/08/03 02:38:13;;;;;;;4.77;1.50;;;17.80;99.90;;;;;;4995654;28;20466;-90
2023/08/03 02:40:40;;;;;;;6.17;1.60;;;17.80;99.90;;;;;;4995925;28;20447;-91
2023/08/03 02:43:07;;;;;;;3.83;1.30;;;17.90;99.90;;;;;;4987937;28;20443;-91
2023/08/03 02:45:33;;;;;;;4.07;1.30;;;17.70;99.90;;;;;;4981070;28;20496;-91
2023/08/03 02:48:01;;;;;;;4.77;1.40;;;17.70;99.90;;;;;;4994801;28;20870;-90
2023/08/03 02:50:28;;;;;;;4.60;1.60;;;17.60;99.90;;;;;;4984837;28;20459;-91
2023/08/03 02:52:55;;;;;;;1.63;1.10;;;17.60;99.90;;;;;;4995533;28;20941;-91
2023/08/03 02:55:21;;;;;;;3.13;1.43;;;17.50;99.90;;;;;;4995359;28;20454;-90
2023/08/03 02:57:48;;;;;;;3.67;1.30;;;17.50;99.90;;;;;;4995338;28;20467;-90
2023/08/03 03:00:15;;;;;;;1.30;1.10;;;17.50;99.90;;;;;;4991817;28;20452;-90
2023/08/03 03:02:41;;;;;;;2.40;1.10;;;17.40;99.90;;;;;;4983682;28;20430;-91
2023/08/03 03:05:10;;;;;;;1.80;1.10;;;17.40;99.90;;;;;;4987507;28;20540;-91
2023/08/03 03:07:36;;;;;;;1.67;1.20;;;17.40;99.90;;;;;;4977884;28;20481;-91
2023/08/03 03:10:03;;;;;;;3.50;1.20;;;17.30;99.90;;;;;;4984227;28;20456;-91
2023/08/03 03:12:30;;;;;;;1.87;1.30;;;17.30;99.90;;;;;;4990206;28;20483;-91
2023/08/03 03:14:57;;;;;;;2.80;1.23;;;17.40;99.90;;;;;;4995797;28;20456;-90
2023/08/03 03:17:23;;;;;;;1.30;1.10;;;17.20;99.90;;;;;;4994766;28;20517;-91
2023/08/03 03:19:50;;;;;;;4.60;1.20;;;17.10;99.90;;;;;;4995336;28;20476;-91
2023/08/03 03:22:18;;;;;;;4.80;1.33;;;17.00;99.90;;;;;;4995157;28;20451;-90
2023/08/03 03:24:45;;;;;;;5.70;1.20;;;17.00;99.90;;;;;;4995687;28;20464;-91
2023/08/03 03:27:11;;;;;;;2.20;1.30;;;17.00;99.90;;;;;;4994909;28;20477;-91
2023/08/03 03:29:38;;;;;;;3.57;1.37;;;17.00;99.90;;;;;;4987239;28;21016;-91
2023/08/03 03:32:05;;;;;;;2.97;1.40;;;17.00;99.90;;;;;;4988264;28;20455;-91
2023/08/03 03:34:32;;;;;;;2.50;1.20;;;16.90;99.90;;;;;;4979987;28;20450;-91
2023/08/03 03:36:59;;;;;;;2.77;1.17;;;16.80;99.90;;;;;;4991139;28;20425;-91
2023/08/03 03:39:27;;;;;;;4.37;1.40;;;16.90;99.90;;;;;;4989678;28;20459;-91
2023/08/03 03:41:53;;;;;;;3.57;1.60;;;16.80;99.90;;;;;;4986727;28;20792;-91
2023/08/03 03:44:20;;;;;;;4.23;1.23;;;16.80;99.90;;;;;;4994923;28;20510;-90
2023/08/03 03:46:47;;;;;;;6.03;1.40;;;16.70;99.90;;;;;;4986554;28;20492;-90
2023/08/03 03:49:13;;;;;;;1.63;1.30;;;16.70;99.90;;;;;;4971557;28;20472;-91
2023/08/03 03:51:40;;;;;;;1.50;1.23;;;16.70;99.90;;;;;;4990200;28;20513;-91
2023/08/03 03:54:06;;;;;;;5.10;1.60;;;16.70;99.90;;;;;;4986915;28;20509;-91
2023/08/03 03:56:34;;;;;;;7.00;1.50;;;16.60;99.90;;;;;;4988617;28;20431;-91
2023/08/03 03:59:01;;;;;;;4.90;1.30;;;16.60;99.90;;;;;;4992544;28;20451;-92
2023/08/03 04:01:28;;;;;;;2.80;1.30;;;16.60;99.90;;;;;;4994577;28;20876;-91
2023/08/03 04:03:55;;;;;;;1.80;1.10;;;16.50;99.90;;;;;;4986860;28;20452;-91
2023/08/03 04:06:21;;;;;;;3.77;1.37;;;16.50;99.90;;;;;;4986432;28;20553;-91
2023/08/03 04:08:48;;;;;;;1.80;1.33;;;16.50;99.90;;;;;;4974675;28;20470;-92
2023/08/03 04:11:15;;;;;;;2.50;1.13;;;16.30;99.90;;;;;;4978609;28;20464;-91
2023/08/03 04:13:43;;;;;;;1.60;1.20;;;16.40;99.90;;;;;;4987622;28;20444;-91
2023/08/03 04:16:09;;;;;;;5.70;1.10;;;16.40;99.90;;;;;;4977874;28;20427;-91
2023/08/03 04:18:36;;;;;;;2.00;1.20;;;16.40;99.90;;;;;;4994347;28;20437;-91
2023/08/03 04:21:03;;;;;;;2.43;1.20;;;16.30;99.90;;;;;;4984225;28;20456;-91
2023/08/03 04:23:29;;;;;;;1.73;1.17;;;16.30;99.90;;;;;;4987970;28;20459;-90
2023/08/03 04:25:56;;;;;;;1.63;1.20;;;16.30;99.90;;;;;;4993481;28;21000;-91
2023/08/03 04:28:23;;;;;;;4.43;1.40;;;16.30;99.90;;;;;;4994129;28;20446;-91
2023/08/03 04:30:51;;;;;;;3.00;1.30;;;16.30;99.90;;;;;;4988001;28;20427;-91
2023/08/03 04:33:18;;;;;;;1.50;1.23;;;16.30;99.90;;;;;;4978769;28;20488;-91
2023/08/03 04:35:44;;;;;;;1.70;1.13;;;16.30;99.90;;;;;;4993621;28;20967;-91
2023/08/03 04:38:11;;;;;;;1.20;1.00;;;16.30;99.90;;;;;;4983941;28;20477;-90
2023/08/03 04:40:38;;;;;;;2.30;1.30;;;16.30;99.90;;;;;;4974187;28;20999;-92
2023/08/03 04:43:05;;;;;;;2.90;1.20;;;16.30;99.90;;;;;;4992539;28;20480;-91
2023/08/03 04:45:32;;;;;;;1.97;1.30;;;16.20;99.90;;;;;;4980147;28;20525;-91
2023/08/03 04:48:00;;;;;;;1.97;1.20;;;16.20;99.90;;;;;;4991034;28;20951;-92
2023/08/03 04:50:26;;;;;;;2.40;1.20;;;16.30;99.90;;;;;;4976760;28;20452;-91
2023/08/03 04:52:53;;;;;;;1.97;1.10;;;16.30;99.90;;;;;;4974059;28;20457;-90
2023/08/03 04:55:20;;;;;;;2.20;1.00;;;16.30;99.90;;;;;;4986084;28;20470;-90
2023/08/03 04:57:46;;;;;;;1.40;1.00;;;16.30;99.90;;;;;;4978555;28;20479;-90
2023/08/03 05:00:14;;;;;;;1.53;1.00;;;16.30;99.90;;;;;;4995244;28;20435;-93
2023/08/03 05:02:41;;;;;;;1.10;1.00;;;16.40;99.90;;;;;;5017881;28;20449;-93
2023/08/03 05:05:09;;;;;;;2.83;1.20;;;16.40;99.90;;;;;;5003031;28;20475;-91
2023/08/03 05:07:36;;;;;;;2.30;1.30;;;16.40;99.90;;;;;;4981755;28;20536;-91
2023/08/03 05:10:02;;;;;;;3.47;1.33;;;16.40;99.90;;;;;;4983743;28;20423;-91
2023/08/03 05:12:29;;;;;;;2.13;1.20;;;16.40;99.90;;;;;;4986788;28;20447;-91
2023/08/03 05:14:56;;;;;;;2.07;1.10;;;16.40;99.90;;;;;;4993139;28;20422;-90
2023/08/03 05:17:22;;;;;;;1.30;1.10;;;16.40;99.90;;;;;;4989367;28;20459;-90
2023/08/03 05:19:49;;;;;;;1.60;1.10;;;16.40;99.90;;;;;;4981063;28;20438;-91
2023/08/03 05:22:17;;;;;;;1.50;1.40;;;16.40;99.90;;;;;;4990074;28;20427;-91
2023/08/03 05:24:44;;;;;;;2.00;1.10;;;16.40;99.90;;;;;;4980553;28;20443;-90
2023/08/03 05:27:10;;;;;;;5.53;1.17;;;16.40;99.90;;;;;;4977081;28;20466;-91
2023/08/03 05:29:37;;;;;;;1.60;1.40;;;16.40;99.90;;;;;;4993175;28;20449;-91
2023/08/03 05:32:04;;;;;;;1.30;1.10;;;16.40;99.90;;;;;;4985255;28;20426;-90
2023/08/03 05:34:31;;;;;;;2.60;1.37;;;16.40;99.90;;;;;;4974622;28;20456;-91
2023/08/03 05:36:58;;;;;;;1.40;1.30;;;16.40;99.90;;;;;;4993049;28;20442;-91
2023/08/03 05:39:27;;;;;;;2.80;1.70;;;16.40;99.90;;;;;;4994380;28;20501;-90
2023/08/03 05:41:54;;;;;;;3.93;1.23;;;16.40;99.90;;;;;;4978646;28;20415;-91
2023/08/03 05:44:21;;;;;;;3.23;1.27;;;16.30;99.90;;;;;;4966727;28;20493;-91
2023/08/03 05:46:48;;;;;;;1.63;1.23;;;16.20;99.90;;;;;;4989301;28;20490;-90
2023/08/03 05:49:14;;;;;;;3.70;1.40;;;16.20;99.90;;;;;;4985672;28;20479;-91
2023/08/03 05:51:41;;;;;;;3.40;1.77;;;16.20;99.90;;;;;;4987069;28;20434;-90
2023/08/03 05:54:13;;;;;;;3.07;1.60;;;16.20;99.90;;;;;;4996560;28;20458;-90
2023/08/03 05:56:42;;;;;;;1.90;1.30;;;16.10;99.90;;;;;;4991745;28;20881;-91
2023/08/03 05:59:17;;;;;;;2.50;1.40;;;16.10;99.90;;;;;;4997332;28;20484;-91
2023/08/03 06:01:44;;;;;;;2.37;1.30;;;16.20;99.90;;;;;;4997400;28;20429;-91
2023/08/03 06:04:12;;;;;;;2.07;1.33;;;16.20;99.90;;;;;;4995225;28;20956;-89
2023/08/03 06:06:38;;;;;;;2.57;1.27;;;16.20;99.90;;;;;;4977196;28;20485;-91
2023/08/03 06:09:05;;;;;;;2.57;1.20;;;16.10;99.90;;;;;;4994168;28;20475;-91
2023/08/03 06:11:32;;;;;;;2.77;1.27;;;16.10;99.90;;;;;;4996408;28;20484;-90
2023/08/03 06:14:00;;;;;;;3.10;1.30;;;16.10;99.90;;;;;;4996851;28;20425;-91
2023/08/03 06:16:27;;;;;;;1.47;1.33;;;16.10;99.90;;;;;;4996877;28;20426;-90
2023/08/03 06:18:55;;;;;;;3.20;1.50;;;16.10;99.90;;;;;;4996810;28;20501;-91
2023/08/03 06:21:24;;;;;;;7.90;1.67;;;16.00;99.90;;;;;;4996338;28;20423;-91
2023/08/03 06:23:52;;;;;;;2.43;1.30;;;16.10;99.90;;;;;;4988247;28;20421;-90
2023/08/03 06:26:20;;;;;;;2.23;1.67;;;16.00;99.90;;;;;;4999685;28;20472;-89
2023/08/03 06:28:49;;;;;;;4.50;1.67;;;16.10;99.90;;;;;;4996707;28;20457;-92
2023/08/03 06:31:18;;;;;;;2.20;1.60;;;16.10;99.90;;;;;;4988887;28;20913;-91
2023/08/03 06:33:46;;;;;;;2.10;1.23;;;16.10;99.90;;;;;;4996847;28;20472;-88
2023/08/03 06:36:16;;;;;;;2.83;1.60;;;16.10;99.90;;;;;;4996923;28;20462;-92
2023/08/03 06:38:44;;;;;;;3.77;1.30;;;16.20;99.90;;;;;;4993652;28;20455;-88
2023/08/03 06:41:11;;;;;;;1.77;1.30;;;16.20;99.90;;;;;;4985679;28;20426;-89
2023/08/03 06:43:38;;;;;;;4.23;1.50;;;16.20;99.90;;;;;;4982526;28;20458;-89
2023/08/03 06:46:05;;;;;;;3.60;1.33;;;16.20;99.90;;;;;;4992874;28;20458;-89
2023/08/03 06:48:34;;;;;;;1.50;1.30;;;16.30;99.90;;;;;;4994094;28;20841;-90
2023/08/03 06:51:02;;;;;;;2.00;1.50;;;16.40;99.90;;;;;;4984129;28;20433;-90
2023/08/03 06:53:28;;;;;;;2.63;1.57;;;16.40;99.90;;;;;;4989096;28;20478;-90
2023/08/03 06:55:55;;;;;;;9.03;1.57;;;16.40;99.90;;;;;;4996575;28;20426;-90
2023/08/03 06:58:22;;;;;;;2.47;1.83;;;16.50;99.90;;;;;;4998348;28;20505;-91
2023/08/03 07:00:49;;;;;;;3.23;1.47;;;16.50;99.90;;;;;;4986760;28;20461;-91
2023/08/03 07:03:15;;;;;;;2.40;1.80;;;16.50;99.90;;;;;;4982169;28;20452;-90
2023/08/03 07:05:44;;;;;;;3.73;1.73;;;16.60;99.90;;;;;;4996692;28;20436;-91
2023/08/03 07:08:11;;;;;;;5.50;1.70;;;16.60;99.90;;;;;;4989355;28;20229;-91
2023/08/03 07:10:38;;;;;;;3.53;1.60;;;16.60;99.90;;;;;;4976434;28;20427;-90
2023/08/03 07:13:06;;;;;;;4.50;1.53;;;16.70;99.90;;;;;;4993240;28;20846;-91
2023/08/03 07:15:34;;;;;;;2.70;1.60;;;16.70;99.90;;;;;;4982359;28;20430;-90
2023/08/03 07:18:01;;;;;;;3.20;2.00;;;16.70;99.90;;;;;;4997117;28;20554;-91
2023/08/03 07:20:28;;;;;;;7.10;1.63;;;16.70;99.90;;;;;;4995595;28;20996;-90
2023/08/03 07:22:56;;;;;;;6.30;1.70;;;16.70;99.90;;;;;;4995503;28;20418;-90
2023/08/03 07:25:23;;;;;;;5.70;1.87;;;16.70;99.90;;;;;;4996094;28;20990;-90
2023/08/03 07:27:51;;;;;;;2.00;1.40;;;16.70;99.90;;;;;;4997046;28;20469;-91
2023/08/03 07:30:18;;;;;;;1.40;1.30;;;16.80;99.90;;;;;;4989127;28;20487;-91
2023/08/03 07:32:44;;;;;;;5.80;1.70;;;16.80;99.90;;;;;;4991646;28;20434;-90
2023/08/03 07:35:11;;;;;;;3.37;1.60;;;16.80;99.90;;;;;;4994660;28;20484;-89
2023/08/03 07:37:38;;;;;;;4.03;1.50;;;16.90;99.90;;;;;;4991065;28;20542;-90
2023/08/03 07:40:08;;;;;;;6.10;1.50;;;17.10;99.90;;;;;;4981127;28;20456;-91
2023/08/03 07:42:35;;;;;;;2.07;1.30;;;17.00;99.90;;;;;;4996074;28;20471;-92
2023/08/03 07:45:02;;;;;;;4.17;1.70;;;17.00;99.90;;;;;;4997296;28;20447;-91
2023/08/03 07:47:30;;;;;;;4.13;1.50;;;17.10;99.90;;;;;;4985459;28;20498;-91
2023/08/03 07:49:57;;;;;;;2.80;1.50;;;17.20;99.90;;;;;;4976955;28;20836;-89
2023/08/03 07:52:24;;;;;;;3.20;1.70;;;17.20;99.90;;;;;;4995074;28;20508;-90
2023/08/03 07:54:50;;;;;;;2.33;1.10;;;17.50;99.90;;;;;;4990687;28;20494;-91
2023/08/03 07:57:19;;;;;;;1.30;1.10;;;17.50;99.90;;;;;;4975910;28;20449;-90
2023/08/03 07:59:49;;;;;;;2.17;1.27;;;17.50;99.90;;;;;;4989507;28;20438;-90
2023/08/03 08:02:15;;;;;;;3.07;1.33;;;17.50;99.90;;;;;;4978206;28;20933;-90
2023/08/03 08:04:42;;;;;;;1.93;1.50;;;17.50;99.90;;;;;;4981273;28;20451;-87
2023/08/03 08:07:09;;;;;;;3.50;1.50;;;17.60;99.90;;;;;;5004272;28;20532;-92
2023/08/03 08:09:36;;;;;;;2.53;1.20;;;17.70;99.90;;;;;;5018759;28;20522;-92
2023/08/03 08:12:02;;;;;;;6.73;1.43;;;17.60;99.90;;;;;;4997834;28;20410;-90
2023/08/03 08:14:30;;;;;;;2.00;1.07;;;17.60;99.90;;;;;;4992053;28;20495;-90
2023/08/03 08:16:57;;;;;;;2.10;1.30;;;17.60;99.90;;;;;;4976377;28;20494;-91
2023/08/03 08:19:24;;;;;;;2.53;1.20;;;17.60;99.90;;;;;;4996021;28;20450;-90
2023/08/03 08:21:51;;;;;;;2.40;1.00;;;17.60;99.90;;;;;;4980425;28;20456;-90
2023/08/03 08:24:17;;;;;;;4.10;1.17;;;17.70;99.90;;;;;;4993644;28;20925;-89
2023/08/03 08:26:45;;;;;;;1.30;1.00;;;17.70;99.90;;;;;;4993738;28;20889;-89
2023/08/03 08:29:12;;;;;;;2.43;1.20;;;17.70;99.90;;;;;;4993085;28;20550;-90
2023/08/03 08:31:40;;;;;;;2.03;1.20;;;17.90;99.90;;;;;;4987528;28;20521;-91
2023/08/03 08:34:07;;;;;;;1.50;1.40;;;18.00;99.90;;;;;;4995859;28;20430;-91
2023/08/03 08:36:34;;;;;;;1.77;1.17;;;18.10;99.90;;;;;;4980049;28;20447;-91
2023/08/03 08:39:00;;;;;;;2.70;1.07;;;18.10;99.90;;;;;;4994694;28;20886;-91
2023/08/03 08:41:27;;;;;;;1.00;0.90;;;18.10;99.90;;;;;;4996057;28;20518;-90
2023/08/03 08:43:54;;;;;;;1.47;1.03;;;18.20;99.90;;;;;;4995977;28;20451;-90
2023/08/03 08:46:20;;;;;;;1.67;1.10;;;18.20;99.90;;;;;;4993752;28;20446;-90
2023/08/03 08:48:49;;;;;;;1.83;1.10;;;18.20;99.90;;;;;;4990878;28;20550;-89
2023/08/03 08:51:18;;;;;;;1.20;1.07;;;18.30;99.90;;;;;;4983147;28;20461;-89
2023/08/03 08:53:45;;;;;;;1.50;1.00;;;18.20;99.90;;;;;;4989428;28;20514;-89
2023/08/03 08:56:12;;;;;;;1.83;1.10;;;18.20;99.90;;;;;;4983433;28;20458;-90
2023/08/03 08:58:39;;;;;;;1.67;0.90;;;18.30;99.90;;;;;;4995294;28;20442;-90
2023/08/03 09:01:06;;;;;;;3.60;1.10;;;18.40;99.90;;;;;;4999076;28;20814;-89
2023/08/03 09:03:51;;;;;;;1.00;0.90;;;18.40;99.90;;;;;;4994714;28;20451;-89
2023/08/03 09:06:19;;;;;;;1.40;0.97;;;18.50;99.90;;;;;;4987075;28;20510;-90
2023/08/03 09:08:51;;;;;;;1.13;0.80;;;18.70;99.90;;;;;;4987356;28;20586;-89
2023/08/03 09:11:18;;;;;;;1.20;0.80;;;18.60;99.90;;;;;;4994446;28;20925;-89
2023/08/03 09:13:49;;;;;;;1.60;1.00;;;18.50;99.90;;;;;;4990485;28;20437;-88
2023/08/03 09:16:24;;;;;;;1.27;1.03;;;18.70;99.90;;;;;;4992237;28;20480;-89
2023/08/03 09:18:52;;;;;;;3.63;1.00;;;18.80;99.90;;;;;;4980808;28;20445;-89
2023/08/03 09:21:20;;;;;;;1.43;0.90;;;19.10;99.90;;;;;;4994169;28;20507;-88
2023/08/03 09:23:47;;;;;;;1.10;0.80;;;19.30;99.90;;;;;;4981756;28;20476;-88
2023/08/03 09:26:14;;;;;;;1.10;0.80;;;19.50;99.90;;;;;;4991591;28;20848;-88
2023/08/03 09:28:42;;;;;;;1.00;0.80;;;19.30;99.90;;;;;;4992429;28;20873;-88
2023/08/03 09:31:10;;;;;;;1.00;0.83;;;19.20;99.90;;;;;;4992230;28;20458;-89
2023/08/03 09:33:38;;;;;;;4.93;1.10;;;19.10;99.90;;;;;;4992983;28;20443;-89
2023/08/03 09:36:10;;;;;;;2.97;1.00;;;19.20;99.90;;;;;;4994041;28;20985;-89
2023/08/03 09:38:38;;;;;;;2.43;0.83;;;19.20;99.90;;;;;;4994193;28;20468;-89
2023/08/03 09:41:05;;;;;;;2.67;1.10;;;19.30;99.90;;;;;;4994640;28;20482;-89
2023/08/03 09:43:32;;;;;;;1.87;0.97;;;19.30;99.90;;;;;;4996101;28;20439;-89
2023/08/03 09:45:59;;;;;;;0.90;0.70;;;19.40;99.90;;;;;;4987642;28;20447;-89
2023/08/03 09:48:26;;;;;;;1.00;0.90;;;19.30;99.90;;;;;;4994121;28;20569;-89
2023/08/03 09:50:54;;;;;;;1.50;0.80;;;19.40;99.90;;;;;;4987313;28;20433;-90
2023/08/03 09:53:25;;;;;;;1.70;1.00;;;19.40;99.90;;;;;;4986323;28;20538;-89
2023/08/03 09:56:00;;;;;;;2.80;0.90;;;19.40;99.90;;;;;;4975541;28;20511;-89
2023/08/03 09:58:33;;;;;;;1.70;1.00;;;19.30;99.90;;;;;;4976113;28;20490;-89
2023/08/03 10:01:02;;;;;;;1.00;0.90;;;19.10;99.90;;;;;;4994518;28;20452;-89
2023/08/03 10:03:31;;;;;;;2.27;1.00;;;19.10;99.90;;;;;;4983541;28;20452;-90
2023/08/03 10:06:08;;;;;;;3.73;1.10;;;18.90;99.90;;;;;;4982946;28;20555;-89
2023/08/03 10:08:43;;;;;;;1.10;0.90;;;18.80;99.90;;;;;;4992796;28;20490;-90
2023/08/03 10:11:12;;;;;;;1.43;1.03;;;18.80;99.90;;;;;;4986583;28;20494;-88
2023/08/03 10:13:42;;;;;;;1.57;0.97;;;18.70;99.90;;;;;;4982051;28;20452;-89
2023/08/03 10:16:09;;;;;;;1.93;1.00;;;18.90;99.90;;;;;;4992540;28;20843;-87
2023/08/03 10:18:36;;;;;;;1.63;1.17;;;18.90;99.90;;;;;;4993477;28;20732;-89
2023/08/03 10:21:04;;;;;;;1.30;0.80;;;19.00;99.90;;;;;;4986361;28;20853;-90
2023/08/03 10:23:31;;;;;;;2.23;0.90;;;19.00;99.90;;;;;;4993587;28;20493;-90
2023/08/03 10:26:00;;;;;;;2.20;0.97;;;19.10;99.90;;;;;;4994530;28;20459;-89
2023/08/03 10:28:28;;;;;;;1.10;0.97;;;19.10;99.90;;;;;;4993377;28;20611;-90
2023/08/03 10:31:11;;;;;;;3.17;0.83;;;19.20;99.90;;;;;;4993344;28;20455;-89
2023/08/03 10:34:14;;;;;;;1.40;1.03;;;19.10;99.90;;;;;;4984961;28;20467;-90
2023/08/03 10:36:49;;;;;;;1.00;0.80;;;19.30;99.90;;;;;;4994045;28;20964;-87
2023/08/03 10:39:18;;;;;;;1.13;0.90;;;19.40;99.90;;;;;;4979647;28;20468;-89
2023/08/03 10:41:49;;;;;;;1.37;1.00;;;19.40;99.90;;;;;;4991236;28;20462;-88
2023/08/03 10:44:33;;;;;;;1.00;0.90;;;19.40;99.90;;;;;;4977150;28;20456;-89
2023/08/03 10:47:00;;;;;;;1.00;0.87;;;19.50;99.90;;;;;;4995037;28;20443;-88
2023/08/03 10:49:49;;;;;;;2.00;1.10;;;19.40;99.90;;;;;;4981363;28;20569;-88
2023/08/03 10:52:19;;;;;;;2.03;1.10;;;19.40;99.90;;;;;;4988050;28;20483;-89
2023/08/03 10:54:47;;;;;;;2.13;1.30;;;19.30;99.90;;;;;;4983916;28;20446;-89
2023/08/03 10:57:16;;;;;;;2.10;1.40;;;19.30;99.90;;;;;;4991802;28;20451;-90
2023/08/03 10:59:45;;;;;;;1.50;1.00;;;19.30;99.90;;;;;;4987151;28;20468;-89
2023/08/03 11:02:13;;;;;;;1.40;1.00;;;19.60;99.90;;;;;;4993291;28;20444;-88
2023/08/03 11:04:40;;;;;;;2.63;1.10;;;19.90;99.90;;;;;;4997205;28;20551;-89
2023/08/03 11:07:09;;;;;;;1.77;1.20;;;20.00;99.90;;;;;;4988923;28;20446;-89
2023/08/03 11:09:36;;;;;;;1.73;1.10;;;19.90;99.90;;;;;;4996744;28;20494;-89
2023/08/03 11:12:04;;;;;;;3.30;1.10;;;19.90;99.90;;;;;;5019578;28;20439;-90
2023/08/03 11:14:32;;;;;;;1.37;1.00;;;20.20;99.90;;;;;;5019789;28;20494;-89
2023/08/03 11:16:59;;;;;;;1.43;1.00;;;20.20;99.90;;;;;;5000295;28;20447;-90
2023/08/03 11:19:32;;;;;;;2.47;1.10;;;20.40;99.90;;;;;;4990375;28;20464;-89
2023/08/03 11:21:59;;;;;;;1.40;1.00;;;20.80;99.90;;;;;;4992210;28;20460;-90
2023/08/03 11:24:30;;;;;;;2.43;0.90;;;20.70;99.90;;;;;;4983103;28;20479;-88
2023/08/03 11:26:57;;;;;;;1.20;0.93;;;20.60;99.90;;;;;;4996883;28;20467;-89
2023/08/03 11:29:24;;;;;;;1.83;1.10;;;20.20;99.90;;;;;;4996019;28;20557;-90
2023/08/03 11:31:52;;;;;;;2.27;1.10;;;20.00;99.90;;;;;;4986079;28;20459;-90
2023/08/03 11:34:19;;;;;;;1.10;1.00;;;19.60;99.90;;;;;;4996113;28;20501;-89
2023/08/03 11:36:48;;;;;;;1.13;1.03;;;19.70;99.90;;;;;;4996269;28;20945;-90
2023/08/03 11:39:15;;;;;;;1.80;1.10;;;19.60;99.90;;;;;;4995681;28;20969;-90
2023/08/03 11:41:43;;;;;;;1.03;0.93;;;19.60;99.90;;;;;;4996150;28;20485;-90
2023/08/03 11:44:10;;;;;;;1.10;1.00;;;19.40;99.90;;;;;;4996896;28;20450;-90
2023/08/03 11:46:37;;;;;;;1.00;0.90;;;19.30;99.90;;;;;;4996110;28;20451;-90
2023/08/03 11:49:05;;;;;;;4.07;1.07;;;19.40;99.90;;;;;;4988933;28;21033;-89
2023/08/03 11:51:33;;;;;;;1.73;1.17;;;19.40;99.90;;;;;;4992362;28;20888;-89
2023/08/03 11:54:03;;;;;;;1.60;1.07;;;19.30;99.90;;;;;;4995104;28;20517;-89
2023/08/03 11:56:30;;;;;;;1.03;0.90;;;19.40;99.90;;;;;;4995425;28;20478;-89
2023/08/03 11:58:56;;;;;;;1.20;1.10;;;19.50;99.90;;;;;;4984261;28;20495;-90
2023/08/03 12:01:25;;;;;;;2.37;1.03;;;19.30;99.90;;;;;;4985360;28;20536;-89
2023/08/03 12:04:06;;;;;;;3.53;1.03;;;19.40;99.90;;;;;;4978866;28;20456;-89
2023/08/03 12:06:43;;;;;;;2.30;1.17;;;19.60;99.90;;;;;;4977724;28;20440;-90
2023/08/03 12:09:10;;;;;;;1.10;1.00;;;19.50;99.90;;;;;;4990969;28;20493;-89
2023/08/03 12:11:37;;;;;;;1.00;0.90;;;19.60;99.90;;;;;;4994688;28;20961;-90
2023/08/03 12:14:03;;;;;;;1.00;0.90;;;19.80;99.90;;;;;;4989539;28;20467;-88
2023/08/03 12:16:30;;;;;;;1.87;1.00;;;20.10;99.90;;;;;;4987805;28;20491;-89
2023/08/03 12:18:57;;;;;;;1.00;0.90;;;20.40;99.90;;;;;;4982361;28;20468;-89
2023/08/03 12:21:25;;;;;;;2.17;0.90;;;20.60;99.90;;;;;;4983439;28;20448;-90
2023/08/03 12:23:51;;;;;;;1.10;0.97;;;21.00;99.90;;;;;;4992381;28;20503;-89
2023/08/03 12:26:18;;;;;;;1.00;0.87;;;21.10;99.90;;;;;;4989676;28;20443;-89
2023/08/03 12:28:45;;;;;;;1.30;0.97;;;21.40;99.90;;;;;;4994235;28;20495;-90
2023/08/03 12:31:11;;;;;;;1.47;1.20;;;21.40;99.90;;;;;;4992375;28;20455;-88
2023/08/03 12:33:38;;;;;;;1.27;1.00;;;20.90;99.90;;;;;;4986607;28;20579;-89
2023/08/03 12:36:05;;;;;;;1.43;1.00;;;21.00;99.90;;;;;;4994257;28;20506;-90
2023/08/03 12:38:34;;;;;;;1.00;0.90;;;21.50;99.90;;;;;;4993796;28;20459;-89
2023/08/03 12:41:01;;;;;;;2.30;1.07;;;21.80;99.90;;;;;;4993848;28;20447;-90
2023/08/03 12:43:28;;;;;;;1.30;1.10;;;21.50;99.90;;;;;;4986948;28;20444;-89
2023/08/03 12:45:54;;;;;;;1.13;0.90;;;21.60;99.90;;;;;;4992117;28;20456;-90
2023/08/03 12:48:21;;;;;;;1.77;1.00;;;21.80;99.90;;;;;;4981214;28;20495;-90